createdAt,value
2018-03-23T00:02:02.641Z,14.63
2018-03-23T00:04:30.376Z,15.90
2018-03-23T00:06:57.980Z,14.80
2018-03-23T00:09:25.713Z,14.40
2018-03-23T00:11:53.850Z,15.00
2018-03-23T00:14:21.628Z,15.67
2018-03-23T00:16:49.406Z,16.00
2018-03-23T00:19:17.288Z,15.67
2018-03-23T00:21:44.962Z,15.33
2018-03-23T00:24:12.682Z,15.10
2018-03-23T00:26:40.827Z,14.30
2018-03-23T00:29:08.568Z,14.27
2018-03-23T00:31:36.274Z,12.77
2018-03-23T00:34:04.055Z,12.87
2018-03-23T00:36:31.834Z,12.90
2018-03-23T00:38:59.615Z,11.60
2018-03-23T00:41:27.478Z,14.13
2018-03-23T00:43:55.271Z,12.87
2018-03-23T00:46:23.032Z,13.30
2018-03-23T00:48:50.775Z,13.33
2018-03-23T00:51:18.501Z,14.47
2018-03-23T00:53:46.284Z,12.30
2018-03-23T00:56:14.163Z,14.23
2018-03-23T00:58:41.858Z,14.43
2018-03-23T01:01:09.721Z,13.10
2018-03-23T01:03:37.596Z,12.53
2018-03-23T01:06:05.271Z,13.33
2018-03-23T01:08:33.051Z,14.67
2018-03-23T01:11:00.727Z,14.90
2018-03-23T01:13:28.402Z,13.50
2018-03-23T01:15:56.231Z,14.60
2018-03-23T01:18:23.846Z,13.13
2018-03-23T01:20:51.528Z,13.43
2018-03-23T01:23:19.254Z,15.03
2018-03-23T01:25:47.093Z,14.43
2018-03-23T01:28:14.812Z,14.70
2018-03-23T01:30:42.644Z,17.30
2018-03-23T01:33:10.381Z,14.80
2018-03-23T01:35:38.197Z,16.70
2018-03-23T01:38:05.973Z,15.63
2018-03-23T01:40:33.694Z,15.43
2018-03-23T01:43:01.325Z,18.27
2018-03-23T01:45:29.105Z,16.87
2018-03-23T01:47:56.843Z,18.67
2018-03-23T01:50:24.559Z,16.93
2018-03-23T01:52:52.437Z,18.73
2018-03-23T01:55:20.034Z,17.77
2018-03-23T01:57:47.740Z,17.60
2018-03-23T02:00:15.875Z,20.80
2018-03-23T02:02:43.650Z,18.30
2018-03-23T02:05:11.429Z,17.37
2018-03-23T02:07:39.097Z,16.67
2018-03-23T02:10:06.884Z,18.10
2018-03-23T02:12:34.508Z,19.60
2018-03-23T02:15:02.300Z,19.60
2018-03-23T02:17:30.115Z,18.87
2018-03-23T02:19:57.895Z,20.00
2018-03-23T02:22:25.780Z,20.50
2018-03-23T02:24:53.620Z,17.20
2018-03-23T02:27:21.429Z,19.13
2018-03-23T02:29:49.312Z,20.07
2018-03-23T02:32:17.190Z,18.90
2018-03-23T02:34:44.969Z,19.13
2018-03-23T02:37:12.852Z,18.20
2018-03-23T02:39:40.522Z,19.23
2018-03-23T02:42:08.302Z,19.17
2018-03-23T02:44:36.154Z,17.83
2018-03-23T02:47:03.964Z,17.63
2018-03-23T02:49:31.629Z,17.83
2018-03-23T02:51:59.421Z,16.83
2018-03-23T02:54:27.143Z,17.73
2018-03-23T02:56:54.968Z,17.93
2018-03-23T02:59:22.646Z,19.70
2018-03-23T03:01:50.416Z,17.23
2018-03-23T03:04:18.117Z,18.17
2018-03-23T03:06:45.831Z,16.90
2018-03-23T03:09:13.654Z,18.00
2018-03-23T03:11:41.945Z,15.50
2018-03-23T03:14:09.675Z,18.43
2018-03-23T03:16:37.503Z,17.17
2018-03-23T03:19:05.276Z,15.83
2018-03-23T03:21:32.949Z,15.80
2018-03-23T03:24:00.730Z,15.30
2018-03-23T03:26:28.459Z,16.47
2018-03-23T03:28:56.075Z,17.87
2018-03-23T03:31:23.963Z,16.13
2018-03-23T03:33:51.634Z,17.40
2018-03-23T03:36:19.423Z,16.23
2018-03-23T03:38:47.140Z,15.20
2018-03-23T03:41:14.870Z,16.23
2018-03-23T03:43:42.752Z,17.80
2018-03-23T03:46:10.527Z,15.30
2018-03-23T03:48:38.305Z,16.27
2018-03-23T03:51:06.090Z,17.30
2018-03-23T03:53:33.747Z,16.23
2018-03-23T03:56:01.641Z,15.60
2018-03-23T03:58:29.311Z,17.67
2018-03-23T04:00:57.093Z,18.83
2018-03-23T04:03:24.869Z,18.53
2018-03-23T04:05:52.796Z,20.33
2018-03-23T04:08:20.528Z,21.00
2018-03-23T04:10:48.306Z,21.67
2018-03-23T04:13:16.082Z,21.80
2018-03-23T04:15:43.967Z,21.77
2018-03-23T04:18:11.745Z,24.67
2018-03-23T04:20:39.423Z,26.40
2018-03-23T04:23:07.138Z,24.70
2018-03-23T04:25:34.761Z,26.20
2018-03-23T04:28:02.897Z,27.07
2018-03-23T04:30:30.513Z,26.37
2018-03-23T04:32:58.305Z,30.40
2018-03-23T04:35:25.978Z,26.70
2018-03-23T04:37:53.656Z,30.10
2018-03-23T04:40:21.506Z,30.47
2018-03-23T04:42:49.314Z,31.00
2018-03-23T04:45:17.206Z,32.67
2018-03-23T04:47:44.930Z,32.03
2018-03-23T04:50:12.648Z,34.93
2018-03-23T04:52:40.837Z,35.80
2018-03-23T04:55:08.649Z,35.93
2018-03-23T04:57:36.496Z,36.37
2018-03-23T05:00:04.682Z,35.10
2018-03-23T05:02:32.455Z,38.63
2018-03-23T05:05:00.238Z,40.80
2018-03-23T05:07:28.120Z,39.83
2018-03-23T05:09:55.892Z,40.40
2018-03-23T05:12:23.575Z,36.23
2018-03-23T05:14:51.230Z,42.70
2018-03-23T05:17:18.980Z,37.60
2018-03-23T05:19:47.109Z,35.70
2018-03-23T05:22:14.873Z,41.10
2018-03-23T05:24:42.568Z,38.70
2018-03-23T05:27:10.336Z,38.23
2018-03-23T05:29:38.088Z,40.67
2018-03-23T05:32:05.784Z,42.80
2018-03-23T05:34:33.572Z,40.33
2018-03-23T05:37:01.661Z,46.30
2018-03-23T05:39:29.449Z,44.17
2018-03-23T05:41:57.215Z,47.13
2018-03-23T05:44:25.092Z,44.50
2018-03-23T05:46:52.830Z,48.80
2018-03-23T05:49:22.388Z,47.30
2018-03-23T05:51:50.528Z,43.00
2018-03-23T05:54:19.275Z,48.63
2018-03-23T05:56:47.052Z,43.80
2018-03-23T05:59:14.831Z,45.27
2018-03-23T06:01:42.512Z,49.17
2018-03-23T06:04:10.285Z,51.30
2018-03-23T06:06:37.965Z,49.00
2018-03-23T06:09:05.727Z,46.67
2018-03-23T06:11:33.517Z,48.33
2018-03-23T06:14:01.287Z,47.20
2018-03-23T06:16:29.175Z,49.90
2018-03-23T06:18:56.919Z,47.77
2018-03-23T06:21:24.686Z,49.77
2018-03-23T06:23:52.396Z,49.80
2018-03-23T06:26:20.143Z,46.70
2018-03-23T06:28:47.963Z,46.20
2018-03-23T06:31:15.641Z,44.93
2018-03-23T06:33:43.310Z,48.43
2018-03-23T06:36:11.194Z,48.10
2018-03-23T06:38:38.971Z,45.67
2018-03-23T06:41:06.751Z,49.73
2018-03-23T06:43:34.630Z,49.40
2018-03-23T06:46:02.409Z,47.40
2018-03-23T06:48:30.170Z,48.03
2018-03-23T06:50:57.964Z,45.97
2018-03-23T06:53:25.744Z,46.77
2018-03-23T06:55:53.469Z,47.73
2018-03-23T06:58:21.294Z,44.67
2018-03-23T07:00:48.970Z,47.27
2018-03-23T07:03:16.742Z,42.87
2018-03-23T07:05:44.630Z,44.10
2018-03-23T07:08:12.374Z,41.37
2018-03-23T07:10:40.188Z,43.80
2018-03-23T07:13:07.884Z,45.87
2018-03-23T07:15:35.652Z,42.57
2018-03-23T07:18:03.418Z,40.67
2018-03-23T07:20:31.195Z,42.53
2018-03-23T07:22:58.838Z,43.37
2018-03-23T07:25:26.530Z,45.67
2018-03-23T07:27:54.324Z,40.57
2018-03-23T07:30:21.997Z,41.30
2018-03-23T07:32:49.629Z,38.90
2018-03-23T07:35:17.760Z,39.53
2018-03-23T07:37:45.572Z,40.97
2018-03-23T07:40:13.418Z,40.83
2018-03-23T07:42:41.199Z,39.53
2018-03-23T07:45:08.871Z,37.67
2018-03-23T07:47:36.751Z,38.97
2018-03-23T07:50:04.428Z,37.93
2018-03-23T07:52:32.173Z,38.90
2018-03-23T07:54:59.984Z,37.20
2018-03-23T07:57:27.760Z,37.00
2018-03-23T07:59:55.501Z,35.40
2018-03-23T08:02:23.314Z,36.03
2018-03-23T08:04:51.093Z,35.03
2018-03-23T08:07:18.759Z,35.00
2018-03-23T08:09:46.436Z,34.67
2018-03-23T08:12:14.331Z,36.57
2018-03-23T08:14:41.992Z,36.07
2018-03-23T08:17:09.777Z,33.70
2018-03-23T08:19:37.448Z,31.57
2018-03-23T08:22:05.332Z,36.10
2018-03-23T08:24:33.005Z,31.17
2018-03-23T08:27:00.758Z,33.20
2018-03-23T08:29:28.524Z,34.60
2018-03-23T08:31:56.343Z,33.33
2018-03-23T08:34:24.121Z,36.20
2018-03-23T08:36:51.897Z,34.87
2018-03-23T08:39:19.678Z,35.30
2018-03-23T08:41:47.664Z,31.57
2018-03-23T08:44:15.588Z,34.97
2018-03-23T08:46:43.214Z,34.00
2018-03-23T08:49:10.994Z,32.87
2018-03-23T08:51:38.667Z,33.80
2018-03-23T08:54:06.385Z,33.80
2018-03-23T08:56:34.226Z,35.40
2018-03-23T08:59:01.973Z,39.67
2018-03-23T09:01:29.782Z,37.07
2018-03-23T09:03:57.458Z,43.00
2018-03-23T09:06:25.128Z,40.50
2018-03-23T09:08:52.909Z,43.27
2018-03-23T09:11:21.098Z,39.80
2018-03-23T09:13:48.822Z,33.90
2018-03-23T09:16:16.654Z,29.87
2018-03-23T09:18:44.533Z,25.07
2018-03-23T09:21:12.206Z,25.10
2018-03-23T09:23:39.938Z,24.70
2018-03-23T09:26:07.767Z,24.20
2018-03-23T09:28:35.444Z,24.53
2018-03-23T09:31:03.322Z,24.17
2018-03-23T09:33:31.059Z,26.90
2018-03-23T09:35:58.821Z,23.63
2018-03-23T09:38:26.656Z,24.47
2018-03-23T09:40:54.382Z,18.97
2018-03-23T09:43:22.209Z,22.60
2018-03-23T09:45:49.986Z,20.73
2018-03-23T09:48:17.765Z,21.33
2018-03-23T09:50:45.444Z,21.70
2018-03-23T09:53:13.115Z,22.40
2018-03-23T09:55:41.305Z,22.53
2018-03-23T09:58:09.082Z,22.57
2018-03-23T10:00:36.873Z,22.87
2018-03-23T10:03:04.936Z,23.60
2018-03-23T10:05:32.782Z,22.20
2018-03-23T10:08:00.407Z,22.13
2018-03-23T10:10:28.075Z,22.57
2018-03-23T10:12:55.749Z,21.97
2018-03-23T10:15:23.495Z,23.13
2018-03-23T10:17:51.191Z,22.10
2018-03-23T10:20:18.979Z,22.47
2018-03-23T10:22:46.759Z,20.93
2018-03-23T10:25:14.479Z,22.40
2018-03-23T10:27:42.317Z,21.70
2018-03-23T10:30:10.199Z,22.53
2018-03-23T10:32:37.806Z,19.60
2018-03-23T10:35:05.539Z,18.80
2018-03-23T10:37:33.227Z,17.57
2018-03-23T10:40:00.899Z,18.70
2018-03-23T10:42:28.781Z,20.23
2018-03-23T10:44:56.451Z,17.67
2018-03-23T10:47:24.264Z,18.10
2018-03-23T10:49:52.069Z,18.90
2018-03-23T10:52:19.891Z,18.20
2018-03-23T10:54:48.485Z,13.73
2018-03-23T10:57:16.266Z,12.30
2018-03-23T10:59:44.083Z,14.10
2018-03-23T11:05:15.644Z,10.93
2018-03-23T11:07:43.424Z,10.60
2018-03-23T11:10:11.151Z,10.53
2018-03-23T11:12:38.870Z,9.87
2018-03-23T11:15:06.612Z,10.67
2018-03-23T11:17:34.324Z,10.80
2018-03-23T11:20:02.169Z,11.20
2018-03-23T11:22:29.884Z,9.60
2018-03-23T11:24:57.558Z,13.67
2018-03-23T11:27:25.332Z,9.53
2018-03-23T11:29:53.123Z,10.27
2018-03-23T11:32:20.855Z,8.70
2018-03-23T11:34:48.775Z,9.40
2018-03-23T11:37:16.551Z,7.53
2018-03-23T11:39:44.328Z,9.27
2018-03-23T11:42:12.107Z,9.50
2018-03-23T11:44:40.296Z,8.60
2018-03-23T11:47:07.958Z,9.63
2018-03-23T11:49:35.717Z,10.47
2018-03-23T11:52:03.527Z,8.57
2018-03-23T11:54:31.304Z,10.40
2018-03-23T11:56:59.388Z,9.80
2018-03-23T11:59:27.171Z,10.93
2018-03-23T12:01:54.859Z,10.53
2018-03-23T12:04:22.617Z,10.20
2018-03-23T12:06:50.401Z,9.63
2018-03-23T12:09:18.178Z,10.40
2018-03-23T12:11:46.056Z,9.73
2018-03-23T12:14:13.820Z,9.10
2018-03-23T12:16:41.613Z,10.50
2018-03-23T12:19:09.278Z,8.80
2018-03-23T12:21:37.367Z,9.73
2018-03-23T12:24:05.153Z,9.60
2018-03-23T12:26:32.935Z,9.73
2018-03-23T12:29:00.614Z,10.77
2018-03-23T12:31:28.482Z,10.83
2018-03-23T12:33:56.214Z,12.43
2018-03-23T12:36:24.042Z,11.63
2018-03-23T12:38:51.923Z,10.50
2018-03-23T12:41:19.598Z,10.03
2018-03-23T12:43:47.371Z,9.90
2018-03-23T12:46:15.558Z,9.43
2018-03-23T12:48:43.228Z,9.43
2018-03-23T12:51:11.014Z,11.53
2018-03-23T12:53:38.894Z,9.90
2018-03-23T12:56:06.570Z,9.03
2018-03-23T12:58:34.347Z,10.60
2018-03-23T13:01:02.020Z,10.37
2018-03-23T13:03:29.803Z,10.70
2018-03-23T13:05:58.120Z,10.13
2018-03-23T13:08:25.868Z,9.60
2018-03-23T13:10:53.538Z,10.60
2018-03-23T13:13:21.425Z,10.57
2018-03-23T13:15:49.146Z,10.87
2018-03-23T13:18:16.759Z,9.20
2018-03-23T13:20:44.549Z,10.33
2018-03-23T13:23:12.214Z,10.90
2018-03-23T13:25:40.003Z,10.87
2018-03-23T13:28:07.781Z,10.40
2018-03-23T13:30:35.664Z,12.03
2018-03-23T13:33:03.417Z,10.40
2018-03-23T13:35:31.219Z,10.87
2018-03-23T13:37:58.999Z,11.60
2018-03-23T13:40:26.866Z,11.20
2018-03-23T13:42:54.539Z,11.27
2018-03-23T13:45:22.327Z,11.27
2018-03-23T13:47:50.106Z,11.00
2018-03-23T13:50:17.845Z,10.50
2018-03-23T13:52:45.663Z,10.17
2018-03-23T13:55:13.440Z,11.87
2018-03-23T13:57:41.217Z,12.80
2018-03-23T14:00:14.422Z,24.60
2018-03-23T14:02:42.204Z,67.50
2018-03-23T14:05:10.264Z,53.67
2018-03-23T14:07:37.975Z,11.87
2018-03-23T14:10:05.743Z,15.23
2018-03-23T14:12:33.415Z,12.87
2018-03-23T14:15:01.148Z,14.40
2018-03-23T14:17:28.971Z,12.63
2018-03-23T14:19:56.749Z,14.13
2018-03-23T14:22:24.474Z,12.20
2018-03-23T14:24:52.306Z,13.27
2018-03-23T14:27:20.083Z,12.90
2018-03-23T14:29:47.950Z,13.40
2018-03-23T14:32:15.688Z,12.60
2018-03-23T14:34:43.380Z,12.47
2018-03-23T14:37:11.084Z,12.63
2018-03-23T14:39:38.871Z,12.23
2018-03-23T14:42:06.648Z,12.03
2018-03-23T14:44:34.498Z,11.70
2018-03-23T14:47:02.127Z,11.90
2018-03-23T14:49:29.833Z,11.77
2018-03-23T14:51:57.552Z,11.67
2018-03-23T14:54:25.578Z,13.10
2018-03-23T14:56:53.416Z,11.80
2018-03-23T14:59:21.195Z,12.13
2018-03-23T15:01:49.384Z,11.37
2018-03-23T15:04:17.160Z,11.40
2018-03-23T15:06:44.897Z,11.13
2018-03-23T15:09:13.021Z,12.60
2018-03-23T15:11:40.802Z,11.93
2018-03-23T15:14:16.668Z,12.13
2018-03-23T15:16:44.374Z,12.97
2018-03-23T15:19:12.083Z,11.10
2018-03-23T15:21:39.869Z,11.50
2018-03-23T15:24:07.579Z,11.33
2018-03-23T15:26:35.240Z,11.63
2018-03-23T15:29:03.522Z,9.70
2018-03-23T15:31:31.234Z,11.20
2018-03-23T15:33:58.879Z,10.37
2018-03-23T15:36:27.080Z,11.33
2018-03-23T15:38:54.754Z,13.20
2018-03-23T15:41:22.556Z,11.17
2018-03-23T15:43:50.307Z,12.73
2018-03-23T15:46:18.197Z,12.77
2018-03-23T15:48:45.862Z,13.30
2018-03-23T15:51:13.743Z,13.07
2018-03-23T15:53:41.524Z,12.60
2018-03-23T15:56:09.301Z,12.40
2018-03-23T15:58:36.972Z,11.13
2018-03-23T16:01:04.812Z,12.67
2018-03-23T16:03:32.536Z,11.27
2018-03-23T16:06:00.646Z,10.80
2018-03-23T16:08:28.395Z,11.60
2018-03-23T16:10:56.127Z,11.60
2018-03-23T16:13:23.950Z,33.90
2018-03-23T16:15:51.729Z,38.00
2018-03-23T16:18:19.451Z,14.50
2018-03-23T16:20:47.184Z,27.70
2018-03-23T16:23:14.961Z,13.00
2018-03-23T16:25:42.736Z,19.17
2018-03-23T16:28:11.030Z,14.77
2018-03-23T16:30:38.810Z,14.50
2018-03-23T16:33:06.527Z,16.30
2018-03-23T16:35:34.571Z,17.97
2018-03-23T16:38:02.595Z,11.93
2018-03-23T16:40:30.328Z,18.37
2018-03-23T16:42:58.148Z,15.47
2018-03-23T16:45:25.884Z,13.20
2018-03-23T16:47:53.662Z,16.97
2018-03-23T16:50:21.397Z,13.13
2018-03-23T16:52:49.218Z,14.43
2018-03-23T16:55:17.003Z,14.60
2018-03-23T16:57:44.775Z,14.87
2018-03-23T17:00:12.586Z,15.70
2018-03-23T17:02:40.326Z,14.97
2018-03-23T17:05:08.108Z,15.10
2018-03-23T17:07:36.105Z,16.87
2018-03-23T17:10:04.052Z,23.67
2018-03-23T17:12:34.013Z,14.57
2018-03-23T17:15:03.910Z,12.23
2018-03-23T17:17:33.887Z,13.97
2018-03-23T17:20:01.743Z,15.00
2018-03-23T17:22:29.517Z,16.60
2018-03-23T17:24:57.294Z,14.10
2018-03-23T17:27:25.178Z,16.50
2018-03-23T17:29:52.959Z,18.23
2018-03-23T17:32:20.706Z,13.93
2018-03-23T17:34:48.515Z,17.00
2018-03-23T17:37:16.333Z,14.93
2018-03-23T17:39:44.066Z,20.30
2018-03-23T17:42:11.727Z,20.80
2018-03-23T17:44:39.507Z,28.20
2018-03-23T17:47:07.400Z,14.80
2018-03-23T17:49:35.177Z,25.50
2018-03-23T17:52:02.956Z,21.23
2018-03-23T17:54:30.833Z,16.30
2018-03-23T17:56:58.614Z,18.43
2018-03-23T17:59:27.449Z,20.13
2018-03-23T18:01:56.226Z,17.07
2018-03-23T18:04:26.764Z,15.07
2018-03-23T18:06:54.638Z,15.60
2018-03-23T18:09:22.319Z,17.90
2018-03-23T18:11:50.407Z,17.70
2018-03-23T18:14:18.180Z,17.47
2018-03-23T18:16:45.843Z,18.53
2018-03-23T18:19:14.452Z,18.90
2018-03-23T18:21:42.207Z,19.73
2018-03-23T18:24:09.905Z,20.20
2018-03-23T18:26:37.579Z,20.00
2018-03-23T18:29:05.230Z,18.80
2018-03-23T18:31:33.043Z,20.27
2018-03-23T18:34:00.740Z,19.40
2018-03-23T18:36:28.384Z,20.70
2018-03-23T18:38:56.270Z,21.87
2018-03-23T18:41:23.987Z,21.13
2018-03-23T18:43:51.619Z,23.10
2018-03-23T18:46:19.497Z,20.37
2018-03-23T18:48:47.276Z,19.97
2018-03-23T18:51:15.054Z,19.20
2018-03-23T18:53:42.833Z,18.77
2018-03-23T18:56:10.566Z,20.27
2018-03-23T18:58:38.229Z,20.77
2018-03-23T19:01:06.317Z,19.27
2018-03-23T19:03:34.116Z,19.90
2018-03-23T19:06:01.699Z,19.00
2018-03-23T19:08:29.808Z,20.37
2018-03-23T19:10:57.451Z,17.43
2018-03-23T19:13:25.142Z,19.80
2018-03-23T19:15:52.819Z,18.87
2018-03-23T19:18:20.493Z,20.43
2018-03-23T19:20:48.182Z,19.40
2018-03-23T19:23:15.963Z,19.87
2018-03-23T19:25:43.746Z,18.97
2018-03-23T19:28:13.482Z,21.03
2018-03-23T19:30:41.446Z,20.10
2018-03-23T19:33:09.189Z,20.47
2018-03-23T19:35:37.001Z,22.40
2018-03-23T19:38:04.782Z,21.40
2018-03-23T19:40:32.664Z,21.57
2018-03-23T19:43:00.444Z,23.03
2018-03-23T19:45:28.214Z,25.80
2018-03-23T19:47:55.995Z,24.03
2018-03-23T19:50:23.872Z,23.90
2018-03-23T19:52:51.720Z,22.90
2018-03-23T19:55:19.490Z,22.63
2018-03-23T19:57:47.206Z,23.43
2018-03-23T20:00:14.884Z,23.37
2018-03-23T20:02:42.706Z,23.40
2018-03-23T20:05:10.543Z,24.40
2018-03-23T20:07:38.218Z,23.50
2018-03-23T20:10:06.061Z,24.63
2018-03-23T20:12:33.979Z,22.50
2018-03-23T20:15:01.756Z,26.07
2018-03-23T20:17:35.066Z,24.37
2018-03-23T20:20:03.764Z,25.23
2018-03-23T20:22:31.754Z,24.17
2018-03-23T20:24:59.530Z,24.40
2018-03-23T20:27:32.938Z,24.20
2018-03-23T20:30:00.671Z,23.00
2018-03-23T20:32:32.398Z,24.47
2018-03-23T20:35:00.048Z,23.37
2018-03-23T20:37:27.834Z,25.63
2018-03-23T20:39:55.718Z,25.43
2018-03-23T20:42:23.414Z,23.60
2018-03-23T20:44:51.582Z,26.33
2018-03-23T20:47:19.239Z,23.40
2018-03-23T20:49:47.038Z,27.10
2018-03-23T20:52:15.226Z,25.67
2018-03-23T20:54:42.993Z,26.50
2018-03-23T20:57:10.787Z,26.53
2018-03-23T20:59:38.657Z,27.07
2018-03-23T21:02:06.748Z,25.97
2018-03-23T21:04:34.420Z,24.03
2018-03-23T21:07:02.143Z,25.43
2018-03-23T21:09:29.870Z,25.43
2018-03-23T21:11:57.649Z,25.33
2018-03-23T21:14:25.537Z,24.67
2018-03-23T21:16:53.258Z,24.43
2018-03-23T21:19:21.092Z,27.20
2018-03-23T21:21:48.866Z,25.53
2018-03-23T21:24:16.655Z,24.83
2018-03-23T21:26:44.420Z,24.50
2018-03-23T21:29:12.168Z,26.53
2018-03-23T21:31:39.977Z,24.73
2018-03-23T21:34:07.882Z,24.30
2018-03-23T21:36:36.045Z,26.90
2018-03-23T21:39:03.896Z,25.87
2018-03-23T21:41:31.595Z,27.33
2018-03-23T21:43:59.477Z,27.00
2018-03-23T21:46:27.230Z,26.10
2018-03-23T21:48:54.931Z,28.50
2018-03-23T21:51:22.605Z,27.00
2018-03-23T21:53:50.363Z,26.10
2018-03-23T21:56:18.369Z,26.20
2018-03-23T21:58:46.144Z,26.70
2018-03-23T22:01:13.924Z,24.83
2018-03-23T22:03:41.705Z,25.60
2018-03-23T22:06:09.476Z,27.07
2018-03-23T22:08:37.137Z,27.10
2018-03-23T22:11:04.894Z,26.13
2018-03-23T22:13:32.712Z,26.30
2018-03-23T22:16:00.591Z,25.53
2018-03-23T22:18:28.261Z,25.67
2018-03-23T22:20:56.042Z,25.90
2018-03-23T22:23:23.822Z,26.27
2018-03-23T22:25:51.500Z,25.40
2018-03-23T22:28:19.275Z,27.10
2018-03-23T22:30:47.005Z,25.80
2018-03-23T22:33:14.720Z,26.90
2018-03-23T22:35:42.389Z,25.53
2018-03-23T22:38:10.066Z,26.40
2018-03-23T22:40:38.267Z,24.40
2018-03-23T22:43:05.936Z,24.23
2018-03-23T22:45:33.721Z,25.87
2018-03-23T22:48:01.497Z,25.70
2018-03-23T22:50:29.174Z,25.07
2018-03-23T22:52:56.842Z,25.73
2018-03-23T22:55:24.525Z,24.93
2018-03-23T22:57:52.286Z,25.80
2018-03-23T23:00:19.970Z,27.20
2018-03-23T23:02:47.719Z,24.37
2018-03-23T23:05:15.535Z,25.60
2018-03-23T23:07:43.312Z,22.33
2018-03-23T23:10:10.987Z,26.30
2018-03-23T23:12:38.867Z,24.97
2018-03-23T23:15:06.646Z,25.33
2018-03-23T23:17:34.424Z,25.40
2018-03-23T23:20:02.203Z,29.17
2018-03-23T23:22:30.083Z,27.93
2018-03-23T23:24:57.860Z,25.43
2018-03-23T23:27:25.643Z,26.40
2018-03-23T23:29:53.929Z,26.50
2018-03-23T23:32:21.600Z,26.33
2018-03-23T23:34:49.278Z,26.97
2018-03-23T23:37:17.056Z,28.63
2018-03-23T23:39:44.792Z,26.00
2018-03-23T23:42:12.505Z,26.50
2018-03-23T23:44:40.389Z,25.37
2018-03-23T23:47:08.165Z,24.10
2018-03-23T23:49:35.908Z,24.83
2018-03-23T23:52:03.611Z,23.30
2018-03-23T23:54:31.399Z,26.70
2018-03-23T23:56:59.161Z,27.13
2018-03-23T23:59:26.900Z,24.47
